Time;durP1;ratioP1;P1;durP2;ratioP2;P2;SDS_P1;SDS_P2;PMS_P1;PMS_P2;Temp;Humidity;BMP_temperature;BMP_pressure;BME280_temperature;BME280_humidity;BME280_pressure;Samples;Min_cycle;Max_cycle;Signal;HPM_P1;HPM_P2
2022/07/11 00:02:04;;;;;;;3.47;1.20;;;;;;;;;;5015047;28;20026;-75
2022/07/11 00:04:31;;;;;;;2.55;0.95;;;;;;;;;;5030656;28;20080;-75
2022/07/11 00:06:57;;;;;;;3.55;1.05;;;;;;;;;;5030390;28;20026;-76
2022/07/11 00:09:27;;;;;;;3.53;1.10;;;;;;;;;;5015894;28;20430;-75
2022/07/11 00:11:53;;;;;;;4.07;1.00;;;;;;;;;;5030975;28;20026;-74
2022/07/11 00:14:21;;;;;;;2.45;0.80;;;;;;;;;;5030980;28;20026;-75
2022/07/11 00:16:48;;;;;;;2.80;0.90;;;;;;;;;;5030139;28;20564;-76
2022/07/11 00:19:14;;;;;;;5.00;1.10;;;;;;;;;;5015440;28;20386;-75
2022/07/11 00:21:41;;;;;;;5.78;1.08;;;;;;;;;;5030811;28;20053;-76
2022/07/11 00:24:07;;;;;;;6.95;1.30;;;;;;;;;;5030329;28;20084;-76
2022/07/11 00:26:34;;;;;;;5.15;1.30;;;;;;;;;;5015532;28;20474;-76
2022/07/11 00:29:00;;;;;;;2.63;0.93;;;;;;;;;;5030577;28;20026;-76
2022/07/11 00:31:26;;;;;;;3.95;1.13;;;;;;;;;;5030315;28;20038;-76
2022/07/11 00:33:52;;;;;;;4.57;1.00;;;;;;;;;;5030052;28;20018;-75
2022/07/11 00:36:18;;;;;;;3.83;1.00;;;;;;;;;;5030336;28;20030;-75
2022/07/11 00:38:44;;;;;;;2.50;1.13;;;;;;;;;;5015636;28;20297;-75
2022/07/11 00:41:10;;;;;;;6.50;1.33;;;;;;;;;;5030069;28;20029;-75
2022/07/11 00:43:37;;;;;;;5.53;1.20;;;;;;;;;;5030375;28;20025;-75
2022/07/11 00:46:04;;;;;;;2.67;0.98;;;;;;;;;;5030246;28;20030;-76
2022/07/11 00:48:30;;;;;;;3.70;1.30;;;;;;;;;;5014547;28;20033;-76
2022/07/11 00:51:01;;;;;;;2.53;1.10;;;;;;;;;;5015368;28;20034;-76
2022/07/11 00:53:28;;;;;;;2.72;1.20;;;;;;;;;;5030008;28;20125;-75
2022/07/11 00:55:55;;;;;;;2.67;1.38;;;;;;;;;;5015246;28;20026;-75
2022/07/11 00:58:22;;;;;;;4.53;1.40;;;;;;;;;;5029518;28;20090;-76
2022/07/11 01:00:48;;;;;;;6.85;1.50;;;;;;;;;;5014935;28;20117;-76
2022/07/11 01:03:14;;;;;;;5.60;1.42;;;;;;;;;;5029613;28;20022;-75
2022/07/11 01:05:41;;;;;;;2.78;1.20;;;;;;;;;;5029828;28;20030;-76
2022/07/11 01:08:07;;;;;;;4.45;1.42;;;;;;;;;;5014342;28;20068;-75
2022/07/11 01:10:33;;;;;;;2.97;1.17;;;;;;;;;;5029846;28;20486;-74
2022/07/11 01:12:59;;;;;;;2.88;1.23;;;;;;;;;;5029808;28;20065;-76
2022/07/11 01:15:26;;;;;;;3.38;1.55;;;;;;;;;;5014529;28;20096;-75
2022/07/11 01:17:52;;;;;;;4.32;1.30;;;;;;;;;;5014923;28;20034;-75
2022/07/11 01:20:19;;;;;;;5.00;1.40;;;;;;;;;;5014124;28;20541;-75
2022/07/11 01:22:50;;;;;;;3.47;1.40;;;;;;;;;;5029807;28;20120;-75
2022/07/11 01:25:30;;;;;;;5.20;1.40;;;;;;;;;;5029181;28;20113;-75
2022/07/11 01:28:00;;;;;;;2.80;1.30;;;;;;;;;;5014621;28;20046;-76
2022/07/11 01:30:27;;;;;;;4.45;1.30;;;;;;;;;;5013967;28;20072;-76
2022/07/11 01:32:54;;;;;;;3.42;1.40;;;;;;;;;;5013840;28;20113;-74
2022/07/11 01:35:20;;;;;;;3.47;1.30;;;;;;;;;;5014509;28;20093;-76
2022/07/11 01:37:47;;;;;;;3.95;1.33;;;;;;;;;;5014078;28;20033;-76
2022/07/11 01:40:13;;;;;;;2.88;1.17;;;;;;;;;;5029615;28;20025;-75
2022/07/11 01:42:40;;;;;;;2.78;1.20;;;;;;;;;;5014568;28;20034;-77
2022/07/11 01:45:06;;;;;;;5.22;1.50;;;;;;;;;;5013626;28;20032;-75
2022/07/11 01:47:32;;;;;;;3.83;1.15;;;;;;;;;;5029456;28;20497;-75
2022/07/11 01:49:58;;;;;;;4.05;1.35;;;;;;;;;;5013871;28;20105;-76
2022/07/11 01:52:25;;;;;;;2.95;1.25;;;;;;;;;;5029010;28;20034;-75
2022/07/11 01:54:51;;;;;;;3.75;1.58;;;;;;;;;;5028690;28;20065;-75
2022/07/11 01:57:18;;;;;;;3.78;1.55;;;;;;;;;;5025398;28;20042;-75
2022/07/11 01:59:44;;;;;;;3.97;1.60;;;;;;;;;;4994428;28;20391;-75
2022/07/11 02:02:10;;;;;;;3.67;1.27;;;;;;;;;;4994955;28;20058;-74
2022/07/11 02:04:36;;;;;;;2.92;1.40;;;;;;;;;;4995041;28;20489;-75
2022/07/11 02:07:02;;;;;;;4.35;1.35;;;;;;;;;;4994858;28;20033;-75
2022/07/11 02:09:29;;;;;;;5.03;1.60;;;;;;;;;;4993087;28;20027;-76
2022/07/11 02:11:55;;;;;;;3.97;1.40;;;;;;;;;;4994408;28;20038;-75
2022/07/11 02:14:21;;;;;;;3.33;1.40;;;;;;;;;;4994315;28;20388;-74
2022/07/11 02:16:48;;;;;;;3.50;1.30;;;;;;;;;;4994330;28;20022;-75
2022/07/11 02:19:15;;;;;;;3.05;1.50;;;;;;;;;;4993091;28;20029;-76
2022/07/11 02:21:41;;;;;;;4.80;1.73;;;;;;;;;;4993171;28;20476;-75
2022/07/11 02:24:08;;;;;;;2.65;1.30;;;;;;;;;;4993882;28;20034;-73
2022/07/11 02:26:35;;;;;;;5.95;1.38;;;;;;;;;;4994056;28;20019;-75
2022/07/11 02:29:01;;;;;;;3.38;1.48;;;;;;;;;;4993964;28;20031;-76
2022/07/11 02:31:27;;;;;;;5.85;1.63;;;;;;;;;;4992772;28;20502;-75
2022/07/11 02:33:53;;;;;;;3.70;1.63;;;;;;;;;;4993193;28;20026;-75
2022/07/11 02:36:19;;;;;;;10.77;1.60;;;;;;;;;;4993951;28;20026;-74
2022/07/11 02:38:46;;;;;;;5.82;1.42;;;;;;;;;;4992648;28;20026;-75
2022/07/11 02:41:12;;;;;;;3.28;1.42;;;;;;;;;;4993071;28;20027;-76
2022/07/11 02:43:38;;;;;;;3.03;1.13;;;;;;;;;;4992984;28;20025;-75
2022/07/11 02:46:05;;;;;;;3.65;1.55;;;;;;;;;;4992964;28;20037;-75
2022/07/11 02:48:31;;;;;;;4.57;1.33;;;;;;;;;;4994174;28;20550;-75
2022/07/11 02:50:58;;;;;;;5.07;1.50;;;;;;;;;;4994112;28;20069;-76
2022/07/11 02:53:24;;;;;;;3.17;1.50;;;;;;;;;;4993678;28;20550;-76
2022/07/11 02:55:50;;;;;;;4.70;1.50;;;;;;;;;;4993496;28;20023;-74
2022/07/11 02:58:17;;;;;;;3.42;1.45;;;;;;;;;;5008463;28;20068;-76
2022/07/11 03:00:43;;;;;;;3.58;1.30;;;;;;;;;;5017101;28;20036;-75
2022/07/11 03:03:09;;;;;;;4.40;1.58;;;;;;;;;;5017029;28;20018;-75
2022/07/11 03:05:35;;;;;;;4.35;1.40;;;;;;;;;;5016852;28;20030;-76
2022/07/11 03:08:01;;;;;;;3.55;1.20;;;;;;;;;;5031759;28;20079;-75
2022/07/11 03:10:27;;;;;;;3.67;1.02;;;;;;;;;;5032153;28;20072;-75
2022/07/11 03:12:53;;;;;;;4.60;1.38;;;;;;;;;;5032112;28;20038;-76
2022/07/11 03:15:21;;;;;;;3.22;1.30;;;;;;;;;;5017361;28;20091;-76
2022/07/11 03:17:47;;;;;;;3.67;1.05;;;;;;;;;;5016549;28;20026;-76
2022/07/11 03:20:15;;;;;;;3.63;1.27;;;;;;;;;;5016169;28;20030;-75
2022/07/11 03:22:41;;;;;;;4.88;1.50;;;;;;;;;;5017234;28;20030;-76
2022/07/11 03:25:07;;;;;;;2.97;1.13;;;;;;;;;;5031203;28;20033;-75
2022/07/11 03:27:34;;;;;;;4.40;1.20;;;;;;;;;;5031050;28;20030;-76
2022/07/11 03:30:00;;;;;;;3.42;1.40;;;;;;;;;;5016087;28;20018;-73
2022/07/11 03:32:26;;;;;;;3.53;1.27;;;;;;;;;;5016476;28;20042;-75
2022/07/11 03:37:37;;;;;;;4.53;1.40;;;;;;;;;;5016917;28;20406;-73
2022/07/11 03:40:04;;;;;;;4.53;1.50;;;;;;;;;;5015878;28;20026;-75
2022/07/11 03:42:30;;;;;;;3.92;1.40;;;;;;;;;;5031051;28;20021;-76
2022/07/11 03:44:56;;;;;;;2.25;1.02;;;;;;;;;;5016505;28;20109;-75
2022/07/11 03:47:22;;;;;;;4.55;1.38;;;;;;;;;;5016118;28;20018;-76
2022/07/11 03:49:48;;;;;;;4.32;1.65;;;;;;;;;;5031639;28;20026;-76
2022/07/11 03:52:15;;;;;;;3.08;1.20;;;;;;;;;;5015660;28;20375;-76
2022/07/11 03:54:41;;;;;;;5.07;1.50;;;;;;;;;;5016167;28;20057;-75
2022/07/11 03:57:07;;;;;;;4.88;1.50;;;;;;;;;;5030394;28;20088;-75
2022/07/11 03:59:33;;;;;;;3.70;1.30;;;;;;;;;;5015399;28;20030;-74
2022/07/11 04:01:59;;;;;;;3.25;1.30;;;;;;;;;;5015415;28;20037;-75
2022/07/11 04:04:25;;;;;;;4.90;1.17;;;;;;;;;;5015910;28;20083;-75
2022/07/11 04:06:51;;;;;;;4.30;1.35;;;;;;;;;;5031106;28;20121;-76
2022/07/11 04:09:17;;;;;;;3.38;1.30;;;;;;;;;;5029982;28;20467;-76
2022/07/11 04:11:43;;;;;;;5.15;1.35;;;;;;;;;;5030512;28;20037;-74
2022/07/11 04:14:09;;;;;;;4.75;1.27;;;;;;;;;;5016314;28;20037;-76
2022/07/11 04:16:35;;;;;;;6.15;1.63;;;;;;;;;;5030875;28;20041;-75
2022/07/11 04:19:02;;;;;;;5.28;1.20;;;;;;;;;;5015740;28;20449;-75
2022/07/11 04:21:28;;;;;;;4.85;1.20;;;;;;;;;;5030841;28;20072;-76
2022/07/11 04:23:54;;;;;;;3.83;0.98;;;;;;;;;;5016015;28;20018;-76
2022/07/11 04:26:20;;;;;;;5.45;1.67;;;;;;;;;;5014981;28;20080;-76
2022/07/11 04:28:46;;;;;;;3.35;1.10;;;;;;;;;;5030099;28;20024;-76
2022/07/11 04:31:12;;;;;;;5.18;1.40;;;;;;;;;;5014807;28;20103;-76
2022/07/11 04:33:39;;;;;;;4.53;1.23;;;;;;;;;;5015090;28;20026;-75
2022/07/11 04:36:05;;;;;;;3.83;1.05;;;;;;;;;;5015009;28;20109;-75
2022/07/11 04:38:31;;;;;;;3.15;0.93;;;;;;;;;;5014938;28;20026;-76
2022/07/11 04:40:57;;;;;;;5.07;1.10;;;;;;;;;;5030456;28;20392;-76
2022/07/11 04:43:23;;;;;;;3.00;0.80;;;;;;;;;;5014810;28;20483;-76
2022/07/11 04:45:50;;;;;;;2.88;0.80;;;;;;;;;;5030427;28;20025;-75
2022/07/11 04:48:16;;;;;;;3.90;1.08;;;;;;;;;;5030291;28;20383;-76
2022/07/11 04:50:44;;;;;;;2.72;0.90;;;;;;;;;;5015086;28;20033;-76
2022/07/11 04:53:11;;;;;;;2.58;0.80;;;;;;;;;;5030199;28;20471;-77
2022/07/11 04:55:40;;;;;;;3.05;1.00;;;;;;;;;;5014846;28;20055;-76
2022/07/11 04:58:08;;;;;;;4.53;0.80;;;;;;;;;;5025221;28;20056;-79
2022/07/11 05:00:35;;;;;;;5.20;0.80;;;;;;;;;;4994325;28;20031;-73
2022/07/11 05:03:01;;;;;;;3.45;1.20;;;;;;;;;;4994614;28;20030;-73
2022/07/11 05:05:27;;;;;;;2.70;0.80;;;;;;;;;;4977505;28;20023;-73
2022/07/11 05:07:53;;;;;;;4.75;1.05;;;;;;;;;;4994427;28;20057;-72
2022/07/11 05:10:20;;;;;;;3.40;0.80;;;;;;;;;;4977003;28;20023;-72
2022/07/11 05:12:46;;;;;;;3.63;0.80;;;;;;;;;;4977015;28;20407;-72
2022/07/11 05:15:12;;;;;;;4.88;1.00;;;;;;;;;;4976900;28;20076;-74
2022/07/11 05:17:38;;;;;;;8.75;1.30;;;;;;;;;;4977221;28;20026;-73
2022/07/11 05:20:04;;;;;;;4.13;0.98;;;;;;;;;;4976892;28;20034;-73
2022/07/11 05:22:30;;;;;;;3.55;0.82;;;;;;;;;;4976705;28;20490;-72
2022/07/11 05:24:56;;;;;;;3.45;0.98;;;;;;;;;;4976897;28;20121;-72
2022/07/11 05:27:23;;;;;;;2.75;0.85;;;;;;;;;;4976901;28;20022;-72
2022/07/11 05:29:49;;;;;;;2.08;0.65;;;;;;;;;;4994229;28;20027;-73
2022/07/11 05:32:15;;;;;;;3.50;0.80;;;;;;;;;;4994246;28;20050;-73
2022/07/11 05:34:41;;;;;;;3.35;0.90;;;;;;;;;;4977064;28;20045;-76
2022/07/11 05:37:07;;;;;;;3.15;0.88;;;;;;;;;;4976616;28;20139;-74
2022/07/11 05:39:33;;;;;;;3.65;0.85;;;;;;;;;;5009226;28;20026;-72
2022/07/11 05:41:59;;;;;;;3.38;0.75;;;;;;;;;;5009363;28;20467;-73
2022/07/11 05:44:26;;;;;;;3.08;0.88;;;;;;;;;;5009295;28;20037;-74
2022/07/11 05:46:52;;;;;;;2.97;0.90;;;;;;;;;;4994853;28;20062;-73
2022/07/11 05:49:18;;;;;;;2.28;0.57;;;;;;;;;;5009721;28;20084;-80
2022/07/11 05:51:44;;;;;;;5.05;0.95;;;;;;;;;;5008988;28;20038;-73
2022/07/11 05:54:10;;;;;;;4.35;0.80;;;;;;;;;;5016587;28;20491;-74
2022/07/11 05:56:36;;;;;;;2.22;0.60;;;;;;;;;;4976380;28;20037;-73
2022/07/11 05:59:02;;;;;;;3.17;0.77;;;;;;;;;;4975149;28;20046;-72
2022/07/11 06:01:31;;;;;;;6.20;1.00;;;;;;;;;;4957149;28;20037;-78
2022/07/11 06:03:58;;;;;;;3.20;0.98;;;;;;;;;;4964087;28;20069;-73
2022/07/11 06:06:24;;;;;;;4.72;1.90;;;;;;;;;;4997764;28;20034;-77
2022/07/11 06:08:50;;;;;;;3.08;0.90;;;;;;;;;;5018717;28;20022;-77
2022/07/11 06:11:16;;;;;;;7.53;1.35;;;;;;;;;;5007921;28;20044;-74
2022/07/11 06:13:44;;;;;;;6.60;1.70;;;;;;;;;;5025657;28;20026;-75
2022/07/11 06:16:11;;;;;;;6.07;1.88;;;;;;;;;;5026126;28;20466;-75
2022/07/11 06:18:37;;;;;;;3.97;1.60;;;;;;;;;;5025356;28;20022;-75
2022/07/11 06:21:04;;;;;;;3.70;0.82;;;;;;;;;;5028745;28;20075;-75
2022/07/11 06:23:30;;;;;;;1.77;0.80;;;;;;;;;;5013595;28;20079;-76
2022/07/11 06:25:57;;;;;;;5.57;1.20;;;;;;;;;;5028274;28;20034;-74
2022/07/11 06:28:23;;;;;;;2.38;0.70;;;;;;;;;;5013658;28;20184;-81
2022/07/11 06:30:50;;;;;;;3.10;1.00;;;;;;;;;;5012997;28;20053;-76
2022/07/11 06:33:16;;;;;;;2.40;0.50;;;;;;;;;;5032081;28;20056;-73
2022/07/11 06:35:44;;;;;;;2.00;0.82;;;;;;;;;;5032519;28;20430;-73
2022/07/11 06:38:10;;;;;;;2.60;1.08;;;;;;;;;;5032092;28;20121;-73
2022/07/11 06:40:36;;;;;;;5.25;1.20;;;;;;;;;;5016854;28;20034;-75
2022/07/11 06:43:02;;;;;;;4.10;1.40;;;;;;;;;;5032172;28;20021;-73
2022/07/11 06:45:28;;;;;;;4.63;1.23;;;;;;;;;;5032720;28;20026;-73
2022/07/11 06:47:54;;;;;;;3.47;1.40;;;;;;;;;;5031737;28;20382;-73
2022/07/11 06:50:21;;;;;;;3.80;1.23;;;;;;;;;;5031974;28;20079;-74
2022/07/11 06:52:47;;;;;;;4.18;0.85;;;;;;;;;;5030243;28;20034;-73
2022/07/11 06:55:14;;;;;;;4.00;0.80;;;;;;;;;;4979792;28;20471;-74
2022/07/11 06:57:40;;;;;;;2.67;0.88;;;;;;;;;;4979590;28;20077;-73
2022/07/11 07:00:10;;;;;;;2.10;0.77;;;;;;;;;;4979228;28;20072;-74
2022/07/11 07:02:38;;;;;;;2.55;0.80;;;;;;;;;;4979566;28;20030;-73
2022/07/11 07:05:05;;;;;;;4.15;1.02;;;;;;;;;;5019839;28;20494;-73
2022/07/11 07:07:31;;;;;;;4.15;1.13;;;;;;;;;;5019682;28;20057;-74
2022/07/11 07:09:57;;;;;;;3.95;0.70;;;;;;;;;;5004342;28;20026;-73
2022/07/11 07:12:23;;;;;;;3.78;1.00;;;;;;;;;;5016725;28;20423;-75
2022/07/11 07:14:49;;;;;;;3.95;0.80;;;;;;;;;;5025216;28;20475;-73
2022/07/11 07:17:16;;;;;;;4.63;0.80;;;;;;;;;;4979090;28;20081;-74
2022/07/11 07:19:42;;;;;;;6.50;0.90;;;;;;;;;;4995798;28;20364;-73
2022/07/11 07:22:08;;;;;;;4.95;0.93;;;;;;;;;;4978993;28;20022;-73
2022/07/11 07:24:35;;;;;;;6.50;0.90;;;;;;;;;;4979224;28;20026;-74
2022/07/11 07:27:02;;;;;;;3.17;1.10;;;;;;;;;;4979327;28;20475;-73
2022/07/11 07:29:28;;;;;;;4.65;1.13;;;;;;;;;;4979147;28;20062;-74
2022/07/11 07:31:54;;;;;;;3.67;0.90;;;;;;;;;;4978669;28;20042;-73
2022/07/11 07:34:21;;;;;;;2.83;0.73;;;;;;;;;;4978718;28;20058;-74
2022/07/11 07:36:47;;;;;;;5.18;0.82;;;;;;;;;;4979182;28;20085;-73
2022/07/11 07:39:13;;;;;;;2.00;0.60;;;;;;;;;;5011150;28;20042;-72
2022/07/11 07:41:39;;;;;;;3.47;0.90;;;;;;;;;;4998735;28;20471;-73
2022/07/11 07:44:05;;;;;;;3.40;0.80;;;;;;;;;;5029241;28;20030;-73
2022/07/11 07:46:32;;;;;;;3.40;0.73;;;;;;;;;;4995250;28;20034;-74
2022/07/11 07:48:59;;;;;;;5.25;0.82;;;;;;;;;;5030983;28;20022;-74
2022/07/11 07:51:25;;;;;;;2.55;0.82;;;;;;;;;;5031779;28;20038;-74
2022/07/11 07:53:51;;;;;;;6.45;0.90;;;;;;;;;;5004997;28;20129;-74
2022/07/11 07:56:17;;;;;;;4.32;0.88;;;;;;;;;;5011007;28;20057;-73
2022/07/11 07:58:43;;;;;;;3.55;0.75;;;;;;;;;;5010918;28;20492;-80
2022/07/11 08:03:54;;;;;;;2.65;0.80;;;;;;;;;;4996228;28;20110;-77
2022/07/11 08:06:21;;;;;;;3.13;0.82;;;;;;;;;;5010518;28;20450;-73
2022/07/11 08:08:47;;;;;;;2.88;0.68;;;;;;;;;;5010841;28;20030;-73
2022/07/11 08:11:13;;;;;;;4.80;1.08;;;;;;;;;;5010478;28;20434;-73
2022/07/11 08:13:39;;;;;;;8.43;1.25;;;;;;;;;;4995522;28;20037;-73
2022/07/11 08:16:06;;;;;;;6.78;0.90;;;;;;;;;;5010495;28;20034;-73
2022/07/11 08:18:33;;;;;;;7.65;1.20;;;;;;;;;;5010579;28;20022;-73
2022/07/11 08:20:59;;;;;;;5.05;0.90;;;;;;;;;;4995238;28;20024;-74
2022/07/11 08:23:25;;;;;;;6.72;1.08;;;;;;;;;;5010133;28;20053;-73
2022/07/11 08:25:52;;;;;;;4.32;1.20;;;;;;;;;;5010232;28;20030;-73
2022/07/11 08:28:18;;;;;;;5.28;1.30;;;;;;;;;;5010295;28;20022;-74
2022/07/11 08:30:45;;;;;;;4.28;1.00;;;;;;;;;;5010317;28;20053;-73
2022/07/11 08:33:11;;;;;;;3.97;0.98;;;;;;;;;;5010343;28;20030;-73
2022/07/11 08:35:37;;;;;;;7.88;1.20;;;;;;;;;;5010187;28;20117;-73
2022/07/11 08:38:03;;;;;;;4.47;1.10;;;;;;;;;;5010200;28;20033;-74
2022/07/11 08:40:30;;;;;;;5.53;1.25;;;;;;;;;;5010256;28;20387;-73
2022/07/11 08:42:59;;;;;;;4.53;1.17;;;;;;;;;;4995429;28;20082;-73
2022/07/11 08:45:30;;;;;;;5.25;0.88;;;;;;;;;;5010189;28;20080;-73
2022/07/11 08:47:58;;;;;;;4.00;1.00;;;;;;;;;;5009681;28;20394;-74
2022/07/11 08:50:26;;;;;;;4.35;1.13;;;;;;;;;;5009937;28;20029;-73
2022/07/11 08:52:54;;;;;;;4.30;1.20;;;;;;;;;;5009909;28;20045;-73
2022/07/11 08:55:20;;;;;;;5.07;0.88;;;;;;;;;;4994750;28;20027;-72
2022/07/11 08:57:46;;;;;;;4.60;1.33;;;;;;;;;;4977366;28;20046;-72
2022/07/11 09:00:13;;;;;;;5.85;1.20;;;;;;;;;;4994470;28;20487;-73
2022/07/11 09:02:41;;;;;;;3.70;0.95;;;;;;;;;;4994601;28;20137;-73
2022/07/11 09:05:08;;;;;;;5.20;1.20;;;;;;;;;;4976975;28;20483;-73
2022/07/11 09:07:35;;;;;;;5.35;1.20;;;;;;;;;;4975548;28;20062;-73
2022/07/11 09:10:02;;;;;;;3.47;1.13;;;;;;;;;;5009064;28;20034;-73
2022/07/11 09:12:28;;;;;;;4.55;1.10;;;;;;;;;;5009608;28;20456;-73
2022/07/11 09:14:54;;;;;;;4.53;1.00;;;;;;;;;;4994820;28;20026;-74
2022/07/11 09:17:30;;;;;;;4.75;1.08;;;;;;;;;;5009601;28;20097;-74
2022/07/11 09:19:56;;;;;;;3.53;1.00;;;;;;;;;;5010101;28;20054;-74
2022/07/11 09:25:24;;;;;;;6.90;1.05;;;;;;;;;;4995026;28;20088;-75
2022/07/11 09:28:05;;;;;;;3.85;1.00;;;;;;;;;;5009924;28;20399;-74
2022/07/11 09:30:32;;;;;;;4.10;1.10;;;;;;;;;;4994343;28;20080;-74
2022/07/11 09:33:00;;;;;;;5.25;0.90;;;;;;;;;;4993268;28;20030;-74
2022/07/11 09:35:28;;;;;;;4.43;0.93;;;;;;;;;;5009302;28;20112;-74
2022/07/11 09:37:54;;;;;;;5.18;1.10;;;;;;;;;;5009565;28;20026;-73
2022/07/11 09:40:22;;;;;;;3.55;0.80;;;;;;;;;;5009344;28;20030;-74
2022/07/11 09:42:52;;;;;;;4.43;0.80;;;;;;;;;;4994315;28;20015;-74
2022/07/11 09:45:19;;;;;;;4.32;0.80;;;;;;;;;;5008969;28;20435;-75
2022/07/11 09:47:46;;;;;;;3.13;0.73;;;;;;;;;;5008974;28;20530;-74
2022/07/11 09:50:12;;;;;;;4.10;0.80;;;;;;;;;;5009062;28;20037;-74
2022/07/11 09:52:39;;;;;;;3.78;0.82;;;;;;;;;;5009207;28;20041;-76
2022/07/11 09:55:05;;;;;;;4.30;0.80;;;;;;;;;;4994423;28;20092;-87
2022/07/11 09:57:35;;;;;;;4.00;0.90;;;;;;;;;;5007777;28;20439;-87
2022/07/11 10:00:03;;;;;;;4.60;0.90;;;;;;;;;;5006612;28;20078;-79
2022/07/11 10:02:29;;;;;;;4.55;1.00;;;;;;;;;;4975373;28;20027;-80
2022/07/11 10:04:55;;;;;;;4.03;1.10;;;;;;;;;;4975318;28;20027;-87
2022/07/11 10:07:21;;;;;;;5.70;1.35;;;;;;;;;;5008560;28;20037;-85
2022/07/11 10:09:47;;;;;;;3.97;0.98;;;;;;;;;;5010569;28;20124;-79
2022/07/11 10:12:14;;;;;;;4.40;1.08;;;;;;;;;;5009910;28;20045;-85
2022/07/11 10:14:43;;;;;;;4.15;1.20;;;;;;;;;;5010330;28;20038;-78
2022/07/11 10:17:12;;;;;;;5.78;1.40;;;;;;;;;;5009912;28;20030;-78
2022/07/11 10:19:38;;;;;;;3.70;0.90;;;;;;;;;;5009620;28;20034;-78
2022/07/11 10:22:23;;;;;;;4.30;1.20;;;;;;;;;;5009869;28;20027;-79
2022/07/11 10:24:54;;;;;;;6.03;1.30;;;;;;;;;;5009714;28;20037;-77
2022/07/11 10:27:28;;;;;;;5.35;1.08;;;;;;;;;;4978252;28;20033;-78
2022/07/11 10:29:54;;;;;;;4.07;1.13;;;;;;;;;;5010014;28;20034;-78
2022/07/11 10:32:20;;;;;;;4.78;1.50;;;;;;;;;;5009105;28;20472;-80
2022/07/11 10:35:05;;;;;;;4.55;1.25;;;;;;;;;;5010064;28;20023;-77
2022/07/11 10:37:46;;;;;;;5.05;1.20;;;;;;;;;;5009003;28;20387;-78
2022/07/11 10:40:12;;;;;;;4.53;1.25;;;;;;;;;;5009120;28;20019;-79
2022/07/11 10:42:42;;;;;;;4.50;1.20;;;;;;;;;;5009105;28;20085;-77
2022/07/11 10:45:12;;;;;;;5.70;1.33;;;;;;;;;;5009823;28;20034;-77
2022/07/11 10:47:42;;;;;;;7.07;1.58;;;;;;;;;;5010030;28;20043;-76
2022/07/11 10:50:09;;;;;;;7.30;1.30;;;;;;;;;;5009026;28;20023;-78
2022/07/11 10:52:37;;;;;;;3.83;1.00;;;;;;;;;;4977999;28;20109;-77
2022/07/11 10:55:03;;;;;;;3.50;1.10;;;;;;;;;;4957369;29;20473;-77
2022/07/11 10:57:32;;;;;;;4.75;1.15;;;;;;;;;;4961757;28;20046;-83
2022/07/11 10:59:59;;;;;;;5.18;1.13;;;;;;;;;;4976559;28;20503;-77
2022/07/11 11:02:25;;;;;;;5.65;1.08;;;;;;;;;;4976905;28;20101;-84
2022/07/11 11:04:58;;;;;;;5.30;1.63;;;;;;;;;;4977246;28;20494;-79
2022/07/11 11:07:27;;;;;;;5.80;1.20;;;;;;;;;;4976958;28;20026;-78
2022/07/11 11:09:54;;;;;;;6.80;1.23;;;;;;;;;;4976374;28;20027;-78
2022/07/11 11:12:20;;;;;;;6.28;1.50;;;;;;;;;;4976631;28;20491;-78
2022/07/11 11:14:46;;;;;;;4.47;1.27;;;;;;;;;;4975851;28;20033;-78
2022/07/11 11:17:42;;;;;;;7.05;1.10;;;;;;;;;;4976118;28;20031;-78
2022/07/11 11:20:31;;;;;;;7.10;1.33;;;;;;;;;;4943763;29;20055;-94
2022/07/11 11:23:31;;;;;;;6.20;1.10;;;;;;;;;;4944026;29;20023;-95
2022/07/11 11:26:13;;;;;;;6.18;1.33;;;;;;;;;;4983882;28;20034;-94
2022/07/11 11:28:55;;;;;;;6.93;1.30;;;;;;;;;;4977971;28;20031;-89
2022/07/11 11:31:21;;;;;;;7.35;1.30;;;;;;;;;;4977600;28;20035;-88
2022/07/11 11:33:47;;;;;;;7.85;1.27;;;;;;;;;;4977723;28;20038;-88
2022/07/11 11:36:16;;;;;;;5.00;1.17;;;;;;;;;;4978158;28;20094;-88
2022/07/11 11:38:43;;;;;;;5.93;1.35;;;;;;;;;;4976923;28;20027;-85
2022/07/11 11:41:09;;;;;;;7.22;1.52;;;;;;;;;;4977304;28;20031;-87
2022/07/11 11:43:36;;;;;;;4.25;1.30;;;;;;;;;;4981198;28;20033;-91
2022/07/11 11:46:06;;;;;;;5.68;1.25;;;;;;;;;;4979977;28;20034;-91
2022/07/11 11:48:36;;;;;;;5.88;1.20;;;;;;;;;;4977624;28;20038;-87
2022/07/11 11:51:03;;;;;;;6.40;1.23;;;;;;;;;;4977328;28;20030;-89
2022/07/11 11:53:29;;;;;;;7.30;1.30;;;;;;;;;;4977151;28;20046;-89
2022/07/11 11:55:56;;;;;;;4.13;1.17;;;;;;;;;;4977198;28;20487;-89
2022/07/11 11:58:28;;;;;;;4.65;1.13;;;;;;;;;;4976906;28;20050;-91
2022/07/11 12:00:55;;;;;;;6.10;1.30;;;;;;;;;;4976991;28;20027;-88
2022/07/11 12:03:21;;;;;;;7.85;1.50;;;;;;;;;;4977653;28;20122;-91
2022/07/11 12:06:00;;;;;;;5.68;1.20;;;;;;;;;;4979158;28;20023;-89
2022/07/11 12:08:26;;;;;;;5.38;1.40;;;;;;;;;;4984132;28;20070;-90
2022/07/11 12:10:56;;;;;;;6.85;1.30;;;;;;;;;;4977675;28;20110;-89
2022/07/11 12:13:22;;;;;;;4.60;1.40;;;;;;;;;;4977578;28;20030;-92
2022/07/11 12:18:37;;;;;;;6.05;1.40;;;;;;;;;;4979275;28;20061;-90
2022/07/11 12:21:10;;;;;;;4.20;1.02;;;;;;;;;;4978974;28;20049;-94
2022/07/11 12:23:36;;;;;;;6.00;1.17;;;;;;;;;;4976992;28;20067;-88
2022/07/11 12:26:03;;;;;;;7.65;1.30;;;;;;;;;;4976748;28;20030;-90
2022/07/11 12:28:29;;;;;;;6.28;1.20;;;;;;;;;;4976447;28;20026;-89
2022/07/11 12:30:58;;;;;;;3.67;1.45;;;;;;;;;;4975670;28;20031;-89
2022/07/11 12:33:25;;;;;;;6.30;0.90;;;;;;;;;;4976834;28;20043;-90
2022/07/11 12:36:02;;;;;;;5.55;1.10;;;;;;;;;;4977174;28;20031;-89
2022/07/11 12:38:51;;;;;;;5.35;0.90;;;;;;;;;;4976794;28;20062;-89
2022/07/11 12:41:26;;;;;;;4.38;0.90;;;;;;;;;;4979095;28;20098;-88
2022/07/11 12:46:38;;;;;;;9.15;1.08;;;;;;;;;;4978187;28;20549;-88
2022/07/11 12:49:06;;;;;;;5.65;1.17;;;;;;;;;;4977465;28;20081;-88
2022/07/11 12:51:40;;;;;;;6.47;1.20;;;;;;;;;;4976376;28;20061;-90
2022/07/11 12:54:17;;;;;;;5.05;1.05;;;;;;;;;;4976513;28;20054;-87
2022/07/11 12:56:53;;;;;;;5.88;1.08;;;;;;;;;;4976282;28;20042;-86
2022/07/11 12:59:22;;;;;;;9.65;1.27;;;;;;;;;;5030565;28;20035;-88
2022/07/11 13:01:58;;;;;;;5.18;1.50;;;;;;;;;;5001207;28;20023;-88
2022/07/11 13:04:31;;;;;;;5.30;1.30;;;;;;;;;;5027724;28;20037;-89
2022/07/11 13:09:43;;;;;;;3.03;1.20;;;;;;;;;;4998330;28;20045;-91
2022/07/11 13:12:10;;;;;;;8.95;1.33;;;;;;;;;;5030228;28;20029;-90
2022/07/11 13:17:20;;;;;;;7.22;1.10;;;;;;;;;;4996989;28;20051;-90
2022/07/11 13:19:47;;;;;;;7.75;1.25;;;;;;;;;;5027922;28;20486;-91
2022/07/11 13:22:17;;;;;;;4.32;1.15;;;;;;;;;;4995306;28;20030;-92
2022/07/11 13:24:43;;;;;;;3.55;0.80;;;;;;;;;;5027966;28;20085;-91
2022/07/11 13:27:09;;;;;;;8.65;1.00;;;;;;;;;;5028033;28;20026;-91
2022/07/11 13:29:35;;;;;;;8.52;1.00;;;;;;;;;;5028464;28;20037;-90
2022/07/11 13:32:02;;;;;;;5.05;0.93;;;;;;;;;;5028025;28;20041;-91
2022/07/11 13:34:28;;;;;;;3.30;1.00;;;;;;;;;;5027665;28;20022;-91
2022/07/11 13:36:54;;;;;;;3.92;0.80;;;;;;;;;;5031026;28;20467;-91
2022/07/11 13:39:26;;;;;;;4.20;0.90;;;;;;;;;;5033347;28;20019;-91
2022/07/11 13:41:57;;;;;;;5.97;0.80;;;;;;;;;;5027567;28;20034;-90
2022/07/11 13:44:23;;;;;;;5.10;1.40;;;;;;;;;;5028202;28;20487;-91
2022/07/11 13:46:49;;;;;;;4.28;0.82;;;;;;;;;;5027859;28;20058;-90
2022/07/11 13:49:19;;;;;;;5.18;0.90;;;;;;;;;;5030218;28;20030;-90
2022/07/11 13:51:45;;;;;;;8.13;1.05;;;;;;;;;;5027946;28;20121;-90
2022/07/11 13:54:12;;;;;;;6.90;1.08;;;;;;;;;;5030179;28;20034;-90
2022/07/11 13:56:38;;;;;;;3.90;0.80;;;;;;;;;;5029355;28;20058;-90
2022/07/11 13:59:04;;;;;;;7.35;1.00;;;;;;;;;;5028239;28;20097;-91
2022/07/11 14:01:30;;;;;;;6.60;1.20;;;;;;;;;;5028441;28;20078;-92
2022/07/11 14:03:57;;;;;;;6.20;1.00;;;;;;;;;;5028602;28;20505;-91
2022/07/11 14:06:23;;;;;;;4.50;0.93;;;;;;;;;;5024332;28;20060;-88
2022/07/11 14:08:49;;;;;;;4.00;0.82;;;;;;;;;;5011159;28;20088;-87
2022/07/11 14:11:15;;;;;;;3.60;1.00;;;;;;;;;;5010514;28;20080;-87
2022/07/11 14:13:41;;;;;;;6.38;1.08;;;;;;;;;;5010648;28;20035;-88
2022/07/11 14:16:08;;;;;;;3.20;0.80;;;;;;;;;;5013485;28;20030;-87
2022/07/11 14:18:34;;;;;;;3.60;0.85;;;;;;;;;;5030366;28;20030;-88
2022/07/11 14:21:00;;;;;;;6.70;1.00;;;;;;;;;;5030168;28;20049;-91
2022/07/11 14:23:26;;;;;;;4.65;1.00;;;;;;;;;;5029676;28;20501;-87
2022/07/11 14:25:52;;;;;;;2.92;0.88;;;;;;;;;;5017982;28;20038;-88
2022/07/11 14:28:19;;;;;;;3.50;0.93;;;;;;;;;;5010395;28;20081;-87
2022/07/11 14:30:45;;;;;;;3.50;1.00;;;;;;;;;;5010618;28;20684;-88
2022/07/11 14:33:11;;;;;;;6.65;1.13;;;;;;;;;;5010986;28;20471;-88
2022/07/11 14:35:37;;;;;;;3.88;0.80;;;;;;;;;;5010733;28;20022;-89
2022/07/11 14:38:04;;;;;;;3.67;0.93;;;;;;;;;;5010554;28;20030;-88
2022/07/11 14:40:30;;;;;;;2.40;0.65;;;;;;;;;;5010951;28;20387;-88
2022/07/11 14:42:57;;;;;;;6.32;1.10;;;;;;;;;;4996085;28;20038;-89
2022/07/11 14:45:23;;;;;;;3.40;0.85;;;;;;;;;;5010237;28;20029;-87
2022/07/11 14:47:49;;;;;;;3.55;0.77;;;;;;;;;;5015857;28;20056;-87
2022/07/11 14:50:15;;;;;;;2.80;1.00;;;;;;;;;;5015505;28;20023;-87
2022/07/11 14:52:43;;;;;;;6.43;1.23;;;;;;;;;;4995482;28;20042;-89
2022/07/11 14:55:09;;;;;;;2.63;0.80;;;;;;;;;;5030096;28;20022;-88
2022/07/11 14:58:17;;;;;;;4.35;1.10;;;;;;;;;;5031547;28;20046;-94
2022/07/11 15:00:25;;;;;;;3.58;0.90;;;;;;;;;;4979185;28;20058;-87
2022/07/11 15:06:07;;;;;;;3.58;0.90;;;;;;;;;;5033461;28;20207;-87
2022/07/11 15:37:01;;;;;;;3.40;0.80;;;;;;;;;;5108199;22;20057;-88